createdAt,value
2018-07-25T00:00:15.096Z,23.74
2018-07-25T00:02:44.325Z,23.55
2018-07-25T00:05:13.522Z,23.46
2018-07-25T00:07:42.694Z,23.40
2018-07-25T00:10:11.833Z,23.45
2018-07-25T00:12:40.943Z,23.57
2018-07-25T00:15:10.024Z,23.61
2018-07-25T00:17:39.122Z,23.61
2018-07-25T00:20:08.194Z,23.44
2018-07-25T00:22:37.293Z,23.48
2018-07-25T00:25:06.373Z,23.49
2018-07-25T00:27:35.580Z,23.54
2018-07-25T00:30:05.725Z,23.61
2018-07-25T00:32:34.944Z,23.50
2018-07-25T00:35:04.052Z,23.48
2018-07-25T00:37:33.802Z,23.40
2018-07-25T00:40:02.891Z,23.41
2018-07-25T00:42:31.979Z,23.34
2018-07-25T00:45:01.118Z,23.39
2018-07-25T00:47:30.290Z,23.19
2018-07-25T00:49:59.377Z,22.95
2018-07-25T00:52:28.542Z,22.90
2018-07-25T00:54:57.591Z,23.02
2018-07-25T00:57:26.666Z,23.06
2018-07-25T00:59:55.755Z,23.04
2018-07-25T01:02:25.451Z,23.06
2018-07-25T01:04:54.541Z,22.90
2018-07-25T01:07:23.762Z,22.79
2018-07-25T01:09:52.890Z,22.77
2018-07-25T01:12:21.964Z,22.71
2018-07-25T01:14:51.565Z,22.76
2018-07-25T01:17:20.655Z,22.80
2018-07-25T01:19:49.968Z,22.78
2018-07-25T01:22:19.053Z,22.78
2018-07-25T01:24:48.144Z,22.76
2018-07-25T01:27:17.257Z,22.85
2018-07-25T01:29:51.087Z,22.82
2018-07-25T01:32:21.507Z,22.63
2018-07-25T01:34:50.651Z,22.43
2018-07-25T01:37:19.746Z,22.39
2018-07-25T01:39:49.193Z,22.53
2018-07-25T01:42:18.577Z,22.34
2018-07-25T01:44:47.986Z,22.34
2018-07-25T01:47:17.076Z,22.37
2018-07-25T01:49:46.563Z,22.37
2018-07-25T01:52:15.646Z,22.32
2018-07-25T01:54:44.893Z,22.15
2018-07-25T01:57:13.942Z,21.87
2018-07-25T01:59:43.058Z,21.72
2018-07-25T02:02:12.219Z,21.82
2018-07-25T02:04:41.746Z,21.97
2018-07-25T02:07:10.866Z,21.97
2018-07-25T02:09:39.930Z,22.12
2018-07-25T02:12:09.013Z,22.11
2018-07-25T02:14:38.100Z,22.17
2018-07-25T02:17:07.264Z,22.17
2018-07-25T02:19:36.387Z,22.20
2018-07-25T02:22:05.422Z,22.16
2018-07-25T02:24:34.513Z,22.19
2018-07-25T02:27:03.986Z,22.04
2018-07-25T02:29:33.146Z,22.12
2018-07-25T02:32:02.438Z,21.92
2018-07-25T02:34:31.542Z,21.99
2018-07-25T02:37:00.667Z,22.02
2018-07-25T02:39:29.725Z,21.86
2018-07-25T02:41:58.834Z,21.60
2018-07-25T02:44:27.922Z,21.60
2018-07-25T02:46:57.350Z,21.49
2018-07-25T02:49:26.414Z,21.49
2018-07-25T02:51:55.506Z,21.55
2018-07-25T02:54:24.541Z,21.38
2018-07-25T02:56:54.092Z,21.22
2018-07-25T02:59:23.077Z,21.01
2018-07-25T03:01:52.183Z,20.94
2018-07-25T03:04:21.230Z,21.14
2018-07-25T03:06:50.254Z,21.31
2018-07-25T03:09:20.049Z,21.42
2018-07-25T03:11:49.082Z,21.33
2018-07-25T03:14:18.171Z,21.42
2018-07-25T03:16:47.327Z,21.33
2018-07-25T03:19:16.294Z,21.28
2018-07-25T03:21:45.366Z,21.27
2018-07-25T03:24:14.481Z,21.29
2018-07-25T03:26:43.545Z,21.40
2018-07-25T03:29:12.821Z,21.29
2018-07-25T03:31:41.898Z,21.33
2018-07-25T03:34:10.993Z,21.31
2018-07-25T03:36:40.101Z,21.16
2018-07-25T03:39:09.229Z,21.20
2018-07-25T03:41:38.639Z,21.22
2018-07-25T03:44:07.702Z,21.22
2018-07-25T03:46:36.822Z,21.18
2018-07-25T03:49:05.918Z,21.05
2018-07-25T03:51:35.017Z,20.91
2018-07-25T03:54:04.161Z,21.02
2018-07-25T03:56:33.224Z,21.02
2018-07-25T03:59:02.281Z,21.08
2018-07-25T04:01:31.406Z,21.17
2018-07-25T04:04:00.538Z,21.06
2018-07-25T04:06:29.657Z,20.85
2018-07-25T04:08:58.689Z,20.67
2018-07-25T04:11:27.789Z,20.82
2018-07-25T04:13:56.870Z,20.93
2018-07-25T04:16:26.081Z,21.01
2018-07-25T04:18:55.131Z,21.03
2018-07-25T04:21:25.089Z,21.09
2018-07-25T04:23:54.194Z,21.01
2018-07-25T04:26:23.546Z,21.03
2018-07-25T04:28:52.643Z,21.04
2018-07-25T04:31:21.759Z,21.04
2018-07-25T04:33:51.058Z,21.06
2018-07-25T04:36:21.921Z,21.10
2018-07-25T04:38:50.962Z,21.03
2018-07-25T04:41:20.057Z,21.07
2018-07-25T04:43:51.804Z,21.01
2018-07-25T04:46:20.920Z,21.07
2018-07-25T04:48:50.015Z,21.06
2018-07-25T04:51:19.066Z,21.03
2018-07-25T04:53:48.226Z,21.06
2018-07-25T04:56:17.294Z,21.12
2018-07-25T04:58:46.331Z,21.21
2018-07-25T05:01:15.543Z,21.22
2018-07-25T05:03:44.583Z,21.19
2018-07-25T05:06:13.641Z,21.24
2018-07-25T05:08:42.843Z,21.33
2018-07-25T05:11:12.576Z,21.31
2018-07-25T05:13:42.747Z,21.33
2018-07-25T05:16:12.607Z,21.40
2018-07-25T05:18:43.134Z,21.51
2018-07-25T05:21:13.118Z,21.51
2018-07-25T05:23:42.201Z,21.54
2018-07-25T05:26:11.285Z,21.57
2018-07-25T05:28:40.402Z,21.55
2018-07-25T05:31:09.624Z,21.55
2018-07-25T05:33:38.693Z,21.54
2018-07-25T05:36:08.223Z,21.53
2018-07-25T05:38:37.481Z,21.70
2018-07-25T05:41:06.512Z,21.85
2018-07-25T05:43:37.469Z,21.88
2018-07-25T05:46:07.445Z,22.00
2018-07-25T05:48:36.554Z,22.03
2018-07-25T05:51:06.673Z,22.12
2018-07-25T05:53:35.805Z,22.19
2018-07-25T05:56:04.897Z,22.22
2018-07-25T05:58:34.133Z,22.25
2018-07-25T06:01:03.222Z,22.28
2018-07-25T06:03:32.440Z,22.39
2018-07-25T06:06:01.974Z,22.42
2018-07-25T06:08:31.106Z,22.51
2018-07-25T06:11:00.209Z,22.61
2018-07-25T06:13:29.880Z,22.68
2018-07-25T06:15:59.097Z,22.80
2018-07-25T06:18:29.066Z,22.92
2018-07-25T06:20:58.203Z,23.00
2018-07-25T06:23:27.566Z,23.16
2018-07-25T06:25:56.767Z,23.28
2018-07-25T06:28:25.925Z,23.20
2018-07-25T06:30:55.162Z,23.18
2018-07-25T06:33:24.357Z,23.37
2018-07-25T06:35:53.454Z,23.54
2018-07-25T06:38:22.530Z,23.60
2018-07-25T06:40:51.604Z,23.61
2018-07-25T06:43:20.839Z,23.64
2018-07-25T06:45:50.136Z,23.83
2018-07-25T06:48:19.326Z,24.05
2018-07-25T06:50:48.459Z,24.18
2018-07-25T06:53:17.489Z,24.30
2018-07-25T06:55:46.630Z,24.49
2018-07-25T06:58:15.819Z,24.54
2018-07-25T07:00:44.929Z,24.62
2018-07-25T07:03:14.084Z,24.73
2018-07-25T07:05:43.230Z,24.89
2018-07-25T07:08:12.369Z,25.01
2018-07-25T07:10:41.445Z,25.04
2018-07-25T07:13:10.576Z,25.19
2018-07-25T07:15:39.718Z,25.37
2018-07-25T07:18:08.826Z,25.51
2018-07-25T07:20:37.973Z,25.66
2018-07-25T07:23:07.047Z,25.83
2018-07-25T07:25:36.180Z,25.95
2018-07-25T07:28:05.427Z,26.02
2018-07-25T07:30:34.467Z,26.07
2018-07-25T07:33:03.598Z,26.20
2018-07-25T07:35:32.991Z,26.30
2018-07-25T07:38:02.147Z,25.43
2018-07-25T07:40:31.343Z,26.47
2018-07-25T07:43:00.933Z,26.67
2018-07-25T07:45:30.017Z,26.79
2018-07-25T07:47:59.113Z,26.88
2018-07-25T07:50:29.309Z,26.99
2018-07-25T07:52:58.378Z,27.17
2018-07-25T07:55:28.161Z,27.25
2018-07-25T07:57:57.333Z,27.33
2018-07-25T08:00:26.401Z,27.43
2018-07-25T08:02:55.522Z,27.54
2018-07-25T08:05:24.654Z,27.64
2018-07-25T08:07:53.746Z,27.82
2018-07-25T08:10:22.976Z,27.98
2018-07-25T08:12:52.128Z,28.09
2018-07-25T08:15:22.151Z,28.21
2018-07-25T08:17:51.368Z,28.33
2018-07-25T08:20:20.417Z,28.44
2018-07-25T08:22:49.487Z,28.54
2018-07-25T08:25:18.541Z,28.56
2018-07-25T08:27:48.696Z,28.66
2018-07-25T08:30:17.797Z,28.82
2018-07-25T08:32:46.909Z,28.88
2018-07-25T08:35:16.068Z,28.88
2018-07-25T08:37:45.537Z,29.02
2018-07-25T08:40:14.674Z,29.16
2018-07-25T08:42:44.346Z,29.31
2018-07-25T08:45:13.487Z,29.44
2018-07-25T08:47:42.647Z,29.54
2018-07-25T08:50:12.792Z,29.65
2018-07-25T08:52:41.874Z,29.78
2018-07-25T08:55:11.069Z,29.91
2018-07-25T08:57:40.191Z,30.05
2018-07-25T09:00:09.407Z,30.18
2018-07-25T09:02:38.493Z,30.32
2018-07-25T09:05:07.650Z,30.44
2018-07-25T09:07:37.299Z,30.51
2018-07-25T09:10:06.403Z,30.63
2018-07-25T09:12:35.582Z,30.78
2018-07-25T09:15:04.751Z,30.85
2018-07-25T09:17:33.918Z,30.85
2018-07-25T09:20:03.188Z,30.95
2018-07-25T09:22:32.241Z,31.01
2018-07-25T09:25:02.744Z,31.11
2018-07-25T09:27:32.677Z,31.09
2018-07-25T09:30:01.895Z,31.20
2018-07-25T09:32:31.017Z,31.28
2018-07-25T09:35:00.277Z,31.46
2018-07-25T09:37:29.414Z,31.51
2018-07-25T09:39:58.691Z,31.65
2018-07-25T09:42:28.418Z,31.78
2018-07-25T09:44:58.764Z,31.91
2018-07-25T09:47:27.918Z,32.01
2018-07-25T09:49:57.060Z,32.11
2018-07-25T09:52:26.980Z,32.18
2018-07-25T09:54:56.135Z,32.21
2018-07-25T09:57:25.294Z,32.33
2018-07-25T09:59:55.461Z,32.35
2018-07-25T10:02:24.741Z,32.21
2018-07-25T10:04:53.862Z,32.15
2018-07-25T10:07:23.153Z,32.28
2018-07-25T10:09:52.098Z,32.14
2018-07-25T10:12:21.238Z,32.08
2018-07-25T10:14:50.516Z,31.98
2018-07-25T10:17:19.731Z,32.05
2018-07-25T10:19:48.837Z,32.15
2018-07-25T10:22:17.922Z,32.22
2018-07-25T10:24:47.097Z,32.01
2018-07-25T10:27:16.352Z,32.02
2018-07-25T10:29:45.443Z,31.98
2018-07-25T10:32:14.595Z,32.01
2018-07-25T10:34:43.666Z,32.18
2018-07-25T10:37:12.724Z,32.39
2018-07-25T10:39:41.837Z,32.53
2018-07-25T10:42:10.959Z,32.61
2018-07-25T10:44:40.182Z,32.67
2018-07-25T10:47:09.293Z,32.59
2018-07-25T10:49:38.528Z,32.57
2018-07-25T10:52:08.973Z,32.63
2018-07-25T10:54:38.079Z,32.65
2018-07-25T10:57:07.138Z,32.79
2018-07-25T10:59:36.243Z,33.09
2018-07-25T11:02:05.611Z,33.29
2018-07-25T11:04:34.812Z,33.23
2018-07-25T11:07:03.879Z,33.17
2018-07-25T11:09:33.066Z,33.06
2018-07-25T11:12:02.738Z,33.02
2018-07-25T11:14:31.901Z,32.93
2018-07-25T11:17:00.957Z,32.86
2018-07-25T11:19:30.077Z,32.79
2018-07-25T11:22:00.167Z,32.79
2018-07-25T11:24:29.460Z,32.72
2018-07-25T11:26:58.946Z,32.73
2018-07-25T11:29:28.032Z,32.76
2018-07-25T11:31:57.328Z,32.77
2018-07-25T11:34:26.489Z,32.89
2018-07-25T11:36:56.614Z,33.13
2018-07-25T11:39:26.596Z,33.34
2018-07-25T11:41:55.729Z,33.37
2018-07-25T11:44:24.798Z,33.43
2018-07-25T11:46:53.933Z,33.43
2018-07-25T11:49:23.037Z,33.37
2018-07-25T11:51:52.090Z,33.30
2018-07-25T11:54:21.247Z,33.29
2018-07-25T11:56:50.414Z,33.27
2018-07-25T11:59:19.511Z,33.19
2018-07-25T12:01:48.674Z,33.23
2018-07-25T12:04:18.396Z,33.09
2018-07-25T12:06:47.616Z,33.10
2018-07-25T12:09:16.667Z,33.04
2018-07-25T12:11:46.811Z,33.17
2018-07-25T12:14:17.224Z,33.21
2018-07-25T12:16:46.340Z,33.38
2018-07-25T12:19:15.926Z,33.79
2018-07-25T12:21:45.165Z,34.08
2018-07-25T12:24:14.362Z,34.03
2018-07-25T12:26:43.627Z,34.13
2018-07-25T12:29:12.776Z,34.21
2018-07-25T12:31:42.376Z,34.67
2018-07-25T12:34:12.080Z,34.78
2018-07-25T12:36:41.179Z,34.84
2018-07-25T12:39:11.091Z,34.57
2018-07-25T12:41:40.390Z,34.52
2018-07-25T12:44:10.404Z,34.49
2018-07-25T12:46:39.644Z,34.73
2018-07-25T12:49:08.769Z,35.00
2018-07-25T12:51:37.863Z,34.81
2018-07-25T12:54:07.960Z,34.99
2018-07-25T12:56:38.760Z,35.15
2018-07-25T12:59:07.881Z,34.98
2018-07-25T13:01:36.953Z,34.83
2018-07-25T13:04:06.239Z,34.90
2018-07-25T13:06:40.601Z,34.95
2018-07-25T13:09:11.256Z,34.88
2018-07-25T13:11:40.325Z,34.80
2018-07-25T13:14:12.487Z,34.65
2018-07-25T13:16:41.567Z,35.01
2018-07-25T13:19:10.757Z,35.25
2018-07-25T13:21:39.879Z,35.30
2018-07-25T13:24:09.009Z,35.22
2018-07-25T13:26:38.552Z,35.40
2018-07-25T13:29:07.639Z,35.42
2018-07-25T13:31:36.754Z,35.08
2018-07-25T13:34:05.888Z,35.12
2018-07-25T13:36:35.080Z,35.08
2018-07-25T13:39:05.972Z,34.97
2018-07-25T13:41:35.346Z,35.09
2018-07-25T13:44:04.914Z,35.14
2018-07-25T13:46:34.032Z,35.05
2018-07-25T13:49:03.127Z,34.98
2018-07-25T13:51:32.307Z,34.92
2018-07-25T13:54:01.517Z,34.89
2018-07-25T13:56:30.633Z,34.74
2018-07-25T13:58:59.777Z,34.59
2018-07-25T14:01:28.863Z,34.61
2018-07-25T14:03:57.909Z,34.59
2018-07-25T14:06:27.037Z,34.64
2018-07-25T14:08:56.134Z,34.91
2018-07-25T14:11:25.254Z,34.99
2018-07-25T14:13:54.326Z,35.00
2018-07-25T14:16:23.476Z,34.90
2018-07-25T14:18:52.652Z,34.70
2018-07-25T14:21:21.798Z,34.57
2018-07-25T14:23:51.042Z,34.51
2018-07-25T14:26:20.013Z,34.51
2018-07-25T14:28:49.164Z,34.54
2018-07-25T14:31:18.422Z,34.58
2018-07-25T14:33:47.553Z,34.61
2018-07-25T14:36:16.674Z,34.63
2018-07-25T14:38:45.747Z,34.83
2018-07-25T14:41:14.894Z,35.15
2018-07-25T14:43:44.220Z,35.80
2018-07-25T14:46:13.284Z,36.45
2018-07-25T14:48:42.404Z,37.13
2018-07-25T14:51:11.611Z,37.66
2018-07-25T14:53:40.622Z,38.15
2018-07-25T14:56:09.881Z,38.46
2018-07-25T14:58:39.281Z,38.78
2018-07-25T15:01:08.373Z,38.91
2018-07-25T15:03:37.670Z,39.04
2018-07-25T15:06:06.775Z,39.21
2018-07-25T15:08:35.916Z,39.53
2018-07-25T15:11:04.958Z,39.61
2018-07-25T15:13:34.078Z,39.60
2018-07-25T15:16:03.229Z,39.69
2018-07-25T15:18:32.416Z,39.58
2018-07-25T15:21:01.509Z,39.69
2018-07-25T15:23:42.543Z,40.04
2018-07-25T15:26:11.625Z,39.70
2018-07-25T15:28:40.883Z,39.05
2018-07-25T15:31:10.017Z,38.67
2018-07-25T15:33:39.128Z,39.26
2018-07-25T15:36:08.260Z,40.01
2018-07-25T15:38:37.323Z,39.79
2018-07-25T15:41:06.730Z,39.74
2018-07-25T15:43:35.884Z,40.05
2018-07-25T15:46:04.963Z,39.63
2018-07-25T15:48:34.091Z,38.87
2018-07-25T15:51:03.201Z,38.75
2018-07-25T15:53:32.329Z,39.10
2018-07-25T15:56:01.792Z,39.18
2018-07-25T15:58:30.924Z,39.14
2018-07-25T16:01:00.182Z,39.09
2018-07-25T16:03:29.322Z,39.33
2018-07-25T16:05:58.401Z,39.51
2018-07-25T16:08:27.534Z,39.65
2018-07-25T16:10:56.668Z,39.54
2018-07-25T16:13:25.767Z,39.73
2018-07-25T16:15:54.866Z,40.05
2018-07-25T16:18:23.919Z,39.84
2018-07-25T16:20:52.998Z,40.69
2018-07-25T16:23:22.152Z,40.59
2018-07-25T16:25:51.321Z,40.46
2018-07-25T16:28:20.522Z,40.92
2018-07-25T16:30:49.614Z,40.96
2018-07-25T16:33:18.749Z,41.04
2018-07-25T16:35:47.830Z,40.53
2018-07-25T16:38:16.942Z,40.36
2018-07-25T16:40:46.038Z,40.54
2018-07-25T16:43:15.151Z,40.68
2018-07-25T16:45:44.497Z,40.04
2018-07-25T16:48:13.568Z,39.93
2018-07-25T16:50:42.657Z,39.88
2018-07-25T16:53:11.739Z,40.55
2018-07-25T16:55:40.889Z,40.86
2018-07-25T16:58:10.212Z,40.75
2018-07-25T17:00:39.346Z,40.21
2018-07-25T17:03:08.446Z,40.67
2018-07-25T17:05:37.509Z,41.02
2018-07-25T17:08:06.705Z,41.16
2018-07-25T17:10:35.822Z,41.11
2018-07-25T17:13:04.999Z,41.00
2018-07-25T17:15:34.214Z,40.45
2018-07-25T17:18:03.310Z,39.66
2018-07-25T17:20:32.421Z,39.07
2018-07-25T17:23:01.533Z,38.35
2018-07-25T17:25:31.522Z,37.67
2018-07-25T17:28:00.658Z,37.32
2018-07-25T17:30:29.753Z,37.31
2018-07-25T17:32:58.797Z,37.39
2018-07-25T17:35:27.886Z,36.97
2018-07-25T17:37:57.055Z,36.54
2018-07-25T17:40:26.267Z,36.32
2018-07-25T17:42:55.466Z,36.20
2018-07-25T17:45:24.585Z,36.12
2018-07-25T17:47:53.719Z,35.95
2018-07-25T17:50:22.852Z,35.87
2018-07-25T17:52:52.005Z,35.70
2018-07-25T17:55:21.159Z,35.58
2018-07-25T17:57:50.265Z,35.49
2018-07-25T18:00:19.356Z,35.78
2018-07-25T18:02:48.438Z,35.64
2018-07-25T18:05:17.536Z,35.42
2018-07-25T18:07:46.634Z,35.39
2018-07-25T18:10:15.774Z,35.23
2018-07-25T18:12:44.907Z,35.10
2018-07-25T18:15:14.080Z,34.98
2018-07-25T18:17:43.199Z,34.95
2018-07-25T18:20:12.293Z,34.99
2018-07-25T18:22:41.376Z,34.97
2018-07-25T18:25:11.339Z,34.88
2018-07-25T18:27:40.517Z,35.09
2018-07-25T18:30:09.874Z,35.28
2018-07-25T18:32:38.929Z,35.29
2018-07-25T18:35:08.107Z,35.10
2018-07-25T18:37:37.163Z,34.99
2018-07-25T18:40:06.294Z,34.96
2018-07-25T18:42:35.406Z,34.78
2018-07-25T18:45:04.703Z,34.75
2018-07-25T18:47:33.829Z,34.71
2018-07-25T18:50:02.902Z,34.55
2018-07-25T18:52:31.953Z,34.25
2018-07-25T18:55:01.116Z,34.25
2018-07-25T18:57:30.220Z,34.30
2018-07-25T18:59:59.317Z,34.27
2018-07-25T19:02:28.665Z,34.23
2018-07-25T19:05:03.001Z,34.17
2018-07-25T19:07:32.188Z,34.09
2018-07-25T19:10:01.355Z,33.97
2018-07-25T19:12:30.608Z,33.68
2018-07-25T19:15:04.929Z,33.34
2018-07-25T19:17:34.616Z,33.28
2018-07-25T19:20:03.662Z,33.29
2018-07-25T19:22:32.758Z,33.26
2018-07-25T19:25:01.802Z,33.24
2018-07-25T19:27:30.957Z,33.05
2018-07-25T19:30:00.065Z,32.73
2018-07-25T19:32:29.199Z,32.70
2018-07-25T19:34:58.379Z,32.71
2018-07-25T19:37:27.749Z,32.55
2018-07-25T19:39:57.369Z,32.51
2018-07-25T19:42:27.062Z,32.31
2018-07-25T19:44:56.551Z,32.25
2018-07-25T19:47:26.531Z,32.32
2018-07-25T19:49:56.099Z,32.40
2018-07-25T19:52:25.190Z,32.44
2018-07-25T19:54:54.738Z,32.44
2018-07-25T19:57:23.823Z,32.33
2018-07-25T19:59:52.987Z,32.29
2018-07-25T20:02:22.066Z,32.22
2018-07-25T20:04:51.173Z,32.18
2018-07-25T20:07:20.282Z,32.12
2018-07-25T20:09:49.329Z,32.07
2018-07-25T20:12:18.589Z,31.97
2018-07-25T20:14:52.927Z,31.90
2018-07-25T20:17:22.017Z,31.60
2018-07-25T20:19:51.141Z,31.47
2018-07-25T20:22:20.325Z,31.11
2018-07-25T20:24:49.478Z,31.14
2018-07-25T20:27:18.631Z,31.22
2018-07-25T20:29:47.726Z,31.20
2018-07-25T20:32:16.875Z,31.18
2018-07-25T20:34:46.010Z,31.11
2018-07-25T20:37:15.253Z,30.69
2018-07-25T20:39:44.566Z,30.35
2018-07-25T20:42:13.696Z,30.12
2018-07-25T20:44:42.813Z,29.85
2018-07-25T20:47:11.970Z,29.64
2018-07-25T20:49:41.607Z,29.60
2018-07-25T20:52:10.881Z,29.59
2018-07-25T20:54:39.949Z,29.59
2018-07-25T20:57:09.083Z,29.54
2018-07-25T20:59:38.246Z,29.21
2018-07-25T21:02:07.512Z,29.09
2018-07-25T21:04:36.690Z,29.02
2018-07-25T21:07:05.867Z,28.90
2018-07-25T21:09:34.939Z,28.75
2018-07-25T21:12:04.061Z,28.70
2018-07-25T21:14:33.266Z,28.56
2018-07-25T21:17:02.374Z,28.41
2018-07-25T21:19:31.964Z,28.25
2018-07-25T21:22:01.078Z,28.26
2018-07-25T21:24:30.142Z,28.27
2018-07-25T21:26:59.217Z,28.29
2018-07-25T21:29:28.347Z,28.34
2018-07-25T21:31:57.455Z,28.31
2018-07-25T21:34:26.653Z,28.14
2018-07-25T21:36:55.758Z,28.02
2018-07-25T21:39:24.894Z,27.96
2018-07-25T21:41:53.999Z,27.71
2018-07-25T21:44:23.103Z,27.50
2018-07-25T21:46:52.175Z,27.59
2018-07-25T21:49:21.312Z,27.61
2018-07-25T21:51:50.414Z,27.50
2018-07-25T21:54:19.499Z,27.15
2018-07-25T21:56:48.589Z,26.94
2018-07-25T21:59:17.659Z,26.83
2018-07-25T22:01:46.761Z,26.96
2018-07-25T22:04:15.943Z,27.12
2018-07-25T22:06:44.997Z,27.25
2018-07-25T22:09:14.157Z,27.29
2018-07-25T22:11:43.234Z,27.21
2018-07-25T22:14:12.321Z,27.20
2018-07-25T22:16:41.443Z,27.18
2018-07-25T22:19:10.552Z,27.25
2018-07-25T22:21:40.492Z,27.16
2018-07-25T22:24:09.611Z,26.98
2018-07-25T22:26:38.673Z,27.09
2018-07-25T22:29:07.838Z,26.98
2018-07-25T22:31:36.933Z,26.65
2018-07-25T22:34:06.282Z,26.52
2018-07-25T22:36:35.378Z,26.56
2018-07-25T22:39:07.507Z,26.59
2018-07-25T22:41:36.998Z,26.72
2018-07-25T22:44:06.321Z,26.74
2018-07-25T22:46:35.381Z,26.72
2018-07-25T22:49:04.422Z,26.78
2018-07-25T22:51:33.522Z,26.82
2018-07-25T22:54:03.454Z,26.63
2018-07-25T22:56:32.603Z,26.58
2018-07-25T22:59:01.767Z,26.52
2018-07-25T23:01:30.992Z,26.50
2018-07-25T23:04:01.067Z,26.39
2018-07-25T23:06:30.139Z,26.40
2018-07-25T23:08:59.210Z,26.29
2018-07-25T23:11:28.329Z,26.32
2018-07-25T23:13:57.621Z,26.39
2018-07-25T23:16:26.703Z,26.36
2018-07-25T23:18:55.817Z,26.35
2018-07-25T23:21:24.974Z,26.33
2018-07-25T23:23:54.026Z,26.28
2018-07-25T23:26:23.206Z,26.31
2018-07-25T23:28:52.585Z,26.24
2018-07-25T23:31:21.669Z,26.27
2018-07-25T23:33:50.920Z,26.33
2018-07-25T23:36:20.110Z,26.00
2018-07-25T23:38:49.273Z,26.00
2018-07-25T23:41:18.372Z,26.01
2018-07-25T23:43:47.647Z,25.99
2018-07-25T23:46:17.439Z,25.97
2018-07-25T23:48:46.610Z,25.96
2018-07-25T23:51:15.744Z,25.80
2018-07-25T23:53:44.972Z,25.69
2018-07-25T23:56:14.035Z,25.74
2018-07-25T23:58:43.190Z,25.60
